createdAt,value
2023-11-12T00:01:59.598Z,100.00
2023-11-12T00:04:27.817Z,100.00
2023-11-12T00:06:55.998Z,100.00
2023-11-12T00:09:25.411Z,100.00
2023-11-12T00:11:54.951Z,100.00
2023-11-12T00:14:23.205Z,100.00
2023-11-12T00:16:51.457Z,100.00
2023-11-12T00:19:19.780Z,100.00
2023-11-12T00:21:48.344Z,100.00
2023-11-12T00:24:18.826Z,100.00
2023-11-12T00:26:47.149Z,100.00
2023-11-12T00:29:17.340Z,100.00
2023-11-12T00:31:45.645Z,100.00
2023-11-12T00:34:14.124Z,100.00
2023-11-12T00:36:43.948Z,100.00
2023-11-12T00:39:12.695Z,100.00
2023-11-12T00:41:41.715Z,100.00
2023-11-12T00:44:12.167Z,100.00
2023-11-12T00:46:43.820Z,100.00
2023-11-12T00:49:12.222Z,100.00
2023-11-12T00:51:40.921Z,100.00
2023-11-12T00:54:09.155Z,100.00
2023-11-12T00:56:37.463Z,100.00
2023-11-12T00:59:06.736Z,100.00
2023-11-12T01:01:35.601Z,100.00
2023-11-12T01:04:05.734Z,100.00
2023-11-12T01:06:34.764Z,100.00
2023-11-12T01:09:03.039Z,100.00
2023-11-12T01:11:31.263Z,100.00
2023-11-12T01:13:59.486Z,100.00
2023-11-12T01:16:30.528Z,100.00
2023-11-12T01:18:59.975Z,100.00
2023-11-12T01:21:29.710Z,100.00
2023-11-12T01:23:58.020Z,100.00
2023-11-12T01:26:26.236Z,100.00
2023-11-12T01:28:54.944Z,100.00
2023-11-12T01:31:24.499Z,100.00
2023-11-12T01:33:53.075Z,100.00
2023-11-12T01:36:21.960Z,100.00
2023-11-12T01:38:51.528Z,100.00
2023-11-12T01:41:20.053Z,100.00
2023-11-12T01:43:48.292Z,100.00
2023-11-12T01:46:16.713Z,100.00
2023-11-12T01:48:45.246Z,100.00
2023-11-12T01:51:14.639Z,100.00
2023-11-12T01:53:43.087Z,100.00
2023-11-12T01:56:14.931Z,100.00
2023-11-12T01:58:44.411Z,100.00
2023-11-12T02:01:13.603Z,100.00
2023-11-12T02:03:44.084Z,100.00
2023-11-12T02:06:14.080Z,100.00
2023-11-12T02:08:42.501Z,100.00
2023-11-12T02:11:13.362Z,100.00
2023-11-12T02:13:44.076Z,100.00
2023-11-12T02:16:12.603Z,100.00
2023-11-12T02:18:46.172Z,100.00
2023-11-12T02:21:14.471Z,100.00
2023-11-12T02:23:44.020Z,100.00
2023-11-12T02:26:13.109Z,100.00
2023-11-12T02:28:41.304Z,100.00
2023-11-12T02:31:10.112Z,100.00
2023-11-12T02:33:39.943Z,100.00
2023-11-12T02:36:09.913Z,100.00
2023-11-12T02:38:38.159Z,100.00
2023-11-12T02:41:11.625Z,100.00
2023-11-12T02:43:40.099Z,100.00
2023-11-12T02:46:08.484Z,100.00
2023-11-12T02:48:52.200Z,100.00
2023-11-12T02:51:21.280Z,100.00
2023-11-12T02:53:49.495Z,100.00
2023-11-12T02:56:19.052Z,100.00
2023-11-12T02:58:47.264Z,100.00
2023-11-12T03:01:15.475Z,100.00
2023-11-12T03:03:43.976Z,100.00
2023-11-12T03:06:12.576Z,100.00
2023-11-12T03:08:42.615Z,100.00
2023-11-12T03:11:11.444Z,100.00
2023-11-12T03:13:40.980Z,100.00
2023-11-12T03:16:09.188Z,100.00
2023-11-12T03:18:37.573Z,100.00
2023-11-12T03:21:06.692Z,100.00
2023-11-12T03:23:36.356Z,100.00
2023-11-12T03:26:04.763Z,100.00
2023-11-12T03:28:32.950Z,100.00
2023-11-12T03:31:02.476Z,100.00
2023-11-12T03:33:30.682Z,100.00
2023-11-12T03:35:59.011Z,100.00
2023-11-12T03:38:27.435Z,100.00
2023-11-12T03:40:56.543Z,100.00
2023-11-12T03:43:24.749Z,100.00
2023-11-12T03:45:53.078Z,100.00
2023-11-12T03:48:22.763Z,100.00
2023-11-12T03:50:51.291Z,100.00
2023-11-12T03:53:19.684Z,100.00
2023-11-12T03:55:47.873Z,100.00
2023-11-12T03:58:16.121Z,100.00
2023-11-12T04:00:44.449Z,100.00
2023-11-12T04:03:12.910Z,100.00
2023-11-12T04:05:42.992Z,100.00
2023-11-12T04:08:11.228Z,100.00
2023-11-12T04:10:39.411Z,100.00
2023-11-12T04:13:07.720Z,100.00
2023-11-12T04:15:36.090Z,100.00
2023-11-12T04:18:04.546Z,100.00
2023-11-12T04:20:33.603Z,100.00
2023-11-12T04:23:03.160Z,100.00
2023-11-12T04:25:31.379Z,100.00
2023-11-12T04:27:59.625Z,100.00
2023-11-12T04:30:27.969Z,100.00
2023-11-12T04:32:56.221Z,100.00
2023-11-12T04:35:24.557Z,100.00
2023-11-12T04:37:53.068Z,100.00
2023-11-12T04:40:23.537Z,100.00
2023-11-12T04:42:52.000Z,100.00
2023-11-12T04:45:21.274Z,100.00
2023-11-12T04:47:49.867Z,100.00
2023-11-12T04:50:18.882Z,100.00
2023-11-12T04:52:48.171Z,100.00
2023-11-12T04:55:16.646Z,100.00
2023-11-12T04:57:46.320Z,100.00
2023-11-12T05:00:15.273Z,100.00
2023-11-12T05:02:46.074Z,100.00
2023-11-12T05:05:14.720Z,100.00
2023-11-12T05:07:43.019Z,100.00
2023-11-12T05:10:12.607Z,100.00
2023-11-12T05:12:40.930Z,100.00
2023-11-12T05:15:11.782Z,100.00
2023-11-12T05:17:40.173Z,100.00
2023-11-12T05:20:09.312Z,100.00
2023-11-12T05:22:38.282Z,100.00
2023-11-12T05:25:07.830Z,100.00
2023-11-12T05:27:36.300Z,100.00
2023-11-12T05:30:05.080Z,100.00
2023-11-12T05:32:34.948Z,100.00
2023-11-12T05:35:03.322Z,100.00
2023-11-12T05:37:31.554Z,100.00
2023-11-12T05:39:59.828Z,100.00
2023-11-12T05:42:28.122Z,100.00
2023-11-12T05:44:56.451Z,100.00
2023-11-12T05:47:25.022Z,100.00
2023-11-12T05:49:54.860Z,100.00
2023-11-12T05:52:23.913Z,100.00
2023-11-12T05:54:52.169Z,100.00
2023-11-12T05:57:21.375Z,100.00
2023-11-12T05:59:49.597Z,100.00
2023-11-12T06:02:17.829Z,100.00
2023-11-12T06:04:46.015Z,100.00
2023-11-12T06:07:15.622Z,100.00
2023-11-12T06:09:45.488Z,100.00
2023-11-12T06:12:13.713Z,100.00
2023-11-12T06:14:42.024Z,100.00
2023-11-12T06:17:10.312Z,100.00
2023-11-12T06:19:38.505Z,100.00
2023-11-12T06:22:06.854Z,100.00
2023-11-12T06:24:36.459Z,100.00
2023-11-12T06:27:04.975Z,100.00
2023-11-12T06:29:33.204Z,100.00
2023-11-12T06:32:01.572Z,100.00
2023-11-12T06:34:29.883Z,100.00
2023-11-12T06:36:59.723Z,100.00
2023-11-12T06:39:27.955Z,100.00
2023-11-12T06:41:57.560Z,100.00
2023-11-12T06:44:25.857Z,100.00
2023-11-12T06:46:54.104Z,100.00
2023-11-12T06:49:22.360Z,100.00
2023-11-12T06:51:50.884Z,100.00
2023-11-12T06:54:19.126Z,100.00
2023-11-12T06:56:47.334Z,100.00
2023-11-12T06:59:17.413Z,100.00
2023-11-12T07:01:46.800Z,100.00
2023-11-12T07:04:15.686Z,100.00
2023-11-12T07:06:57.371Z,100.00
2023-11-12T07:09:32.497Z,100.00
2023-11-12T07:12:01.111Z,100.00
2023-11-12T07:14:30.667Z,100.00
2023-11-12T07:16:58.893Z,100.00
2023-11-12T07:19:27.517Z,100.00
2023-11-12T07:21:55.846Z,100.00
2023-11-12T07:24:24.107Z,100.00
2023-11-12T07:26:52.406Z,100.00
2023-11-12T07:29:20.628Z,100.00
2023-11-12T07:31:50.190Z,100.00
2023-11-12T07:34:18.489Z,100.00
2023-11-12T07:36:46.771Z,100.00
2023-11-12T07:39:15.076Z,100.00
2023-11-12T07:41:43.698Z,100.00
2023-11-12T07:44:11.936Z,100.00
2023-11-12T07:46:42.250Z,100.00
2023-11-12T07:49:13.431Z,100.00
2023-11-12T07:51:41.800Z,100.00
2023-11-12T07:54:10.271Z,100.00
2023-11-12T07:56:42.168Z,100.00
2023-11-12T07:59:11.159Z,100.00
2023-11-12T08:01:39.800Z,100.00
2023-11-12T08:04:09.518Z,100.00
2023-11-12T08:06:39.216Z,100.00
2023-11-12T08:09:07.843Z,100.00
2023-11-12T08:11:40.685Z,100.00
2023-11-12T08:14:10.110Z,100.00
2023-11-12T08:16:38.757Z,100.00
2023-11-12T08:19:07.286Z,100.00
2023-11-12T08:21:35.555Z,100.00
2023-11-12T08:24:06.712Z,100.00
2023-11-12T08:26:39.803Z,100.00
2023-11-12T08:29:09.067Z,100.00
2023-11-12T08:31:37.956Z,100.00
2023-11-12T08:34:06.950Z,100.00
2023-11-12T08:36:36.152Z,100.00
2023-11-12T08:39:06.209Z,100.00
2023-11-12T08:41:34.408Z,100.00
2023-11-12T08:44:02.640Z,100.00
2023-11-12T08:46:30.880Z,100.00
2023-11-12T08:48:59.141Z,100.00
2023-11-12T08:51:27.433Z,100.00
2023-11-12T08:53:56.200Z,100.00
2023-11-12T08:56:26.974Z,100.00
2023-11-12T08:58:55.204Z,100.00
2023-11-12T09:01:23.400Z,100.00
2023-11-12T09:03:51.665Z,100.00
2023-11-12T09:06:20.217Z,100.00
2023-11-12T09:08:48.743Z,100.00
2023-11-12T09:11:16.951Z,100.00
2023-11-12T09:13:46.616Z,100.00
2023-11-12T09:16:15.101Z,100.00
2023-11-12T09:18:43.401Z,98.65
2023-11-12T09:21:11.652Z,100.00
2023-11-12T09:23:40.422Z,100.00
2023-11-12T09:26:09.238Z,99.56
2023-11-12T09:28:39.295Z,99.46
2023-11-12T09:31:09.177Z,98.97
2023-11-12T09:33:37.494Z,97.82
2023-11-12T09:36:06.644Z,95.91
2023-11-12T09:38:37.187Z,93.96
2023-11-12T09:41:06.150Z,93.60
2023-11-12T09:43:34.861Z,92.86
2023-11-12T09:46:07.922Z,91.17
2023-11-12T09:48:40.892Z,90.58
2023-11-12T09:51:11.087Z,90.38
2023-11-12T09:53:42.263Z,90.34
2023-11-12T09:56:11.167Z,90.32
2023-11-12T09:58:42.316Z,89.47
2023-11-12T10:01:12.435Z,88.88
2023-11-12T10:03:44.187Z,89.68
2023-11-12T10:06:12.940Z,89.51
2023-11-12T10:08:42.554Z,86.57
2023-11-12T10:11:19.153Z,85.60
2023-11-12T10:13:47.948Z,86.41
2023-11-12T10:16:30.658Z,86.84
2023-11-12T10:19:12.771Z,87.65
2023-11-12T10:21:54.928Z,87.55
2023-11-12T10:24:23.961Z,86.82
2023-11-12T10:26:54.554Z,87.66
2023-11-12T10:29:23.414Z,88.62
2023-11-12T10:31:51.839Z,88.10
2023-11-12T10:34:23.536Z,88.31
2023-11-12T10:37:05.442Z,88.21
2023-11-12T10:39:38.365Z,88.30
2023-11-12T10:42:08.634Z,88.08
2023-11-12T10:44:37.601Z,87.03
2023-11-12T10:47:10.479Z,86.52
2023-11-12T10:49:41.962Z,87.35
2023-11-12T10:52:13.053Z,87.84
2023-11-12T10:54:43.239Z,88.17
2023-11-12T10:57:13.550Z,88.01
2023-11-12T10:59:44.211Z,86.76
2023-11-12T11:02:18.451Z,85.65
2023-11-12T11:04:49.026Z,84.59
2023-11-12T11:07:18.537Z,84.41
2023-11-12T11:09:46.896Z,84.30
2023-11-12T11:12:16.003Z,84.00
2023-11-12T11:14:44.234Z,83.10
2023-11-12T11:17:39.149Z,82.71
2023-11-12T11:20:13.120Z,81.99
2023-11-12T11:22:42.689Z,82.72
2023-11-12T11:25:24.156Z,80.78
2023-11-12T11:28:22.375Z,79.79
2023-11-12T11:31:12.887Z,79.39
2023-11-12T11:33:48.006Z,79.23
2023-11-12T11:36:20.599Z,78.75
2023-11-12T11:39:24.910Z,78.97
2023-11-12T11:42:13.187Z,79.04
2023-11-12T11:44:50.404Z,78.47
2023-11-12T11:47:21.071Z,79.19
2023-11-12T11:49:50.557Z,79.08
2023-11-12T11:52:22.098Z,80.62
2023-11-12T11:55:03.972Z,81.38
2023-11-12T11:57:33.208Z,81.75
2023-11-12T12:00:02.484Z,82.50
2023-11-12T12:02:43.477Z,82.49
2023-11-12T12:05:11.799Z,84.16
2023-11-12T12:07:46.123Z,84.93
2023-11-12T12:10:26.702Z,86.35
2023-11-12T12:12:55.780Z,87.23
2023-11-12T12:15:24.141Z,88.14
2023-11-12T12:17:52.476Z,89.08
2023-11-12T12:20:20.762Z,90.01
2023-11-12T12:22:51.087Z,91.17
2023-11-12T12:25:19.701Z,91.46
2023-11-12T12:27:54.877Z,91.73
2023-11-12T12:30:23.169Z,92.25
2023-11-12T12:32:52.763Z,93.21
2023-11-12T12:35:24.861Z,94.08
2023-11-12T12:38:08.167Z,93.63
2023-11-12T12:40:39.430Z,93.95
2023-11-12T12:43:11.460Z,93.47
2023-11-12T12:45:39.819Z,93.80
2023-11-12T12:48:15.861Z,94.72
2023-11-12T12:50:44.260Z,94.80
2023-11-12T12:53:15.103Z,95.93
2023-11-12T12:55:44.954Z,96.40
2023-11-12T12:58:13.796Z,95.86
2023-11-12T13:00:44.387Z,96.06
2023-11-12T13:03:27.596Z,95.87
2023-11-12T13:05:57.841Z,95.55
2023-11-12T13:08:28.824Z,95.33
2023-11-12T13:10:57.033Z,95.02
2023-11-12T13:13:26.561Z,95.92
2023-11-12T13:15:54.851Z,96.35
2023-11-12T13:18:23.633Z,97.08
2023-11-12T13:20:52.654Z,98.39
2023-11-12T13:23:21.359Z,99.78
2023-11-12T13:25:52.632Z,100.00
2023-11-12T13:28:22.265Z,100.00
2023-11-12T13:30:50.509Z,100.00
2023-11-12T13:33:19.277Z,100.00
2023-11-12T13:35:49.088Z,100.00
2023-11-12T13:38:17.576Z,100.00
2023-11-12T13:40:46.002Z,100.00
2023-11-12T13:43:15.826Z,100.00
2023-11-12T13:45:44.300Z,100.00
2023-11-12T13:48:12.780Z,100.00
2023-11-12T13:50:41.107Z,100.00
2023-11-12T13:53:13.232Z,100.00
2023-11-12T13:55:42.855Z,100.00
2023-11-12T13:58:14.370Z,100.00
2023-11-12T14:00:44.280Z,100.00
2023-11-12T14:03:12.745Z,100.00
2023-11-12T14:05:41.091Z,100.00
2023-11-12T14:08:13.009Z,100.00
2023-11-12T14:10:41.731Z,100.00
2023-11-12T14:13:10.611Z,100.00
2023-11-12T14:15:40.276Z,100.00
2023-11-12T14:18:11.296Z,100.00
2023-11-12T14:20:39.760Z,100.00
2023-11-12T14:23:09.508Z,100.00
2023-11-12T14:25:38.794Z,100.00
2023-11-12T14:28:07.732Z,100.00
2023-11-12T14:30:38.507Z,100.00
2023-11-12T14:33:07.682Z,100.00
2023-11-12T14:35:37.238Z,100.00
2023-11-12T14:38:06.001Z,100.00
2023-11-12T14:40:34.356Z,100.00
2023-11-12T14:43:07.979Z,100.00
2023-11-12T14:45:38.072Z,100.00
2023-11-12T14:48:08.467Z,100.00
2023-11-12T14:50:38.814Z,100.00
2023-11-12T14:53:07.239Z,100.00
2023-11-12T14:55:35.754Z,100.00
2023-11-12T14:58:05.946Z,100.00
2023-11-12T15:00:36.438Z,100.00
2023-11-12T15:03:07.391Z,100.00
2023-11-12T15:05:37.206Z,100.00
2023-11-12T15:08:07.104Z,100.00
2023-11-12T15:10:35.323Z,100.00
2023-11-12T15:13:03.787Z,100.00
2023-11-12T15:15:32.031Z,100.00
2023-11-12T15:18:00.313Z,100.00
2023-11-12T15:20:28.722Z,100.00
2023-11-12T15:22:57.112Z,100.00
2023-11-12T15:25:26.832Z,100.00
2023-11-12T15:27:55.207Z,100.00
2023-11-12T15:30:25.741Z,100.00
2023-11-12T15:32:54.689Z,100.00
2023-11-12T15:35:22.901Z,100.00
2023-11-12T15:37:51.114Z,100.00
2023-11-12T15:40:20.986Z,100.00
2023-11-12T15:42:52.998Z,100.00
2023-11-12T15:45:24.713Z,100.00
2023-11-12T15:47:54.086Z,100.00
2023-11-12T15:50:26.865Z,100.00
2023-11-12T15:52:55.206Z,100.00
2023-11-12T15:55:23.549Z,100.00
2023-11-12T15:57:53.368Z,100.00
2023-11-12T16:00:21.706Z,100.00
2023-11-12T16:02:53.063Z,100.00
2023-11-12T16:05:26.688Z,100.00
2023-11-12T16:07:56.659Z,100.00
2023-11-12T16:10:24.876Z,100.00
2023-11-12T16:12:54.927Z,100.00
2023-11-12T16:15:23.273Z,100.00
2023-11-12T16:17:52.744Z,100.00
2023-11-12T16:20:21.210Z,100.00
2023-11-12T16:22:49.454Z,100.00
2023-11-12T16:25:18.036Z,100.00
2023-11-12T16:27:46.365Z,100.00
2023-11-12T16:30:16.288Z,100.00
2023-11-12T16:32:44.679Z,100.00
2023-11-12T16:35:14.473Z,100.00
2023-11-12T16:37:48.544Z,100.00
2023-11-12T16:40:17.489Z,100.00
2023-11-12T16:42:47.125Z,100.00
2023-11-12T16:45:17.884Z,100.00
2023-11-12T16:47:46.675Z,100.00
2023-11-12T16:50:18.032Z,100.00
2023-11-12T16:52:46.402Z,100.00
2023-11-12T16:55:14.861Z,100.00
2023-11-12T16:57:44.798Z,100.00
2023-11-12T17:00:13.841Z,100.00
2023-11-12T17:02:43.585Z,100.00
2023-11-12T17:05:12.332Z,100.00
2023-11-12T17:07:41.054Z,100.00
2023-11-12T17:10:10.747Z,100.00
2023-11-12T17:12:39.146Z,100.00
2023-11-12T17:15:10.984Z,100.00
2023-11-12T17:17:40.365Z,100.00
2023-11-12T17:20:13.901Z,100.00
2023-11-12T17:22:42.672Z,100.00
2023-11-12T17:25:13.044Z,100.00
2023-11-12T17:27:42.393Z,100.00
2023-11-12T17:30:13.296Z,100.00
2023-11-12T17:32:41.771Z,100.00
2023-11-12T17:35:15.645Z,100.00
2023-11-12T17:37:43.953Z,100.00
2023-11-12T17:40:13.238Z,100.00
2023-11-12T17:42:42.750Z,100.00
2023-11-12T17:45:12.829Z,100.00
2023-11-12T17:47:41.659Z,100.00
2023-11-12T17:50:12.106Z,100.00
2023-11-12T17:52:40.450Z,100.00
2023-11-12T17:55:09.704Z,100.00
2023-11-12T17:57:39.108Z,100.00
2023-11-12T18:00:10.305Z,100.00
2023-11-12T18:02:39.583Z,100.00
2023-11-12T18:05:08.266Z,100.00
2023-11-12T18:07:37.836Z,100.00
2023-11-12T18:10:12.332Z,100.00
2023-11-12T18:12:42.296Z,100.00
2023-11-12T18:15:14.090Z,100.00
2023-11-12T18:17:42.471Z,100.00
2023-11-12T18:20:11.722Z,100.00
2023-11-12T18:22:41.224Z,100.00
2023-11-12T18:25:10.336Z,100.00
2023-11-12T18:27:40.333Z,100.00
2023-11-12T18:30:09.736Z,100.00
2023-11-12T18:32:39.112Z,100.00
2023-11-12T18:35:09.180Z,100.00
2023-11-12T18:37:37.398Z,100.00
2023-11-12T18:40:10.243Z,100.00
2023-11-12T18:42:39.819Z,100.00
2023-11-12T18:45:09.071Z,100.00
2023-11-12T18:47:37.261Z,100.00
2023-11-12T18:50:05.875Z,100.00
2023-11-12T18:52:34.083Z,100.00
2023-11-12T18:55:02.292Z,100.00
2023-11-12T18:57:31.825Z,100.00
2023-11-12T19:00:01.702Z,100.00
2023-11-12T19:02:29.995Z,100.00
2023-11-12T19:04:58.598Z,100.00
2023-11-12T19:07:27.966Z,100.00
2023-11-12T19:09:56.165Z,100.00
2023-11-12T19:12:24.660Z,100.00
2023-11-12T19:14:54.633Z,100.00
2023-11-12T19:17:23.481Z,100.00
2023-11-12T19:19:51.806Z,100.00
2023-11-12T19:22:20.342Z,100.00
2023-11-12T19:24:49.014Z,100.00
2023-11-12T19:27:17.872Z,100.00
2023-11-12T19:29:46.110Z,100.00
2023-11-12T19:32:17.628Z,100.00
2023-11-12T19:34:46.375Z,100.00
2023-11-12T19:37:14.696Z,100.00
2023-11-12T19:39:43.063Z,100.00
2023-11-12T19:42:12.196Z,100.00
2023-11-12T19:44:40.524Z,100.00
2023-11-12T19:47:09.484Z,100.00
2023-11-12T19:49:39.190Z,100.00
2023-11-12T19:52:07.840Z,100.00
2023-11-12T19:54:42.035Z,100.00
2023-11-12T19:57:11.236Z,100.00
2023-11-12T19:59:41.141Z,100.00
2023-11-12T20:02:10.915Z,100.00
2023-11-12T20:04:40.961Z,100.00
2023-11-12T20:07:09.352Z,100.00
2023-11-12T20:09:39.442Z,100.00
2023-11-12T20:12:08.446Z,100.00
2023-11-12T20:14:38.424Z,100.00
2023-11-12T20:17:11.194Z,100.00
2023-11-12T20:19:42.655Z,100.00
2023-11-12T20:22:10.890Z,100.00
2023-11-12T20:24:39.470Z,100.00
2023-11-12T20:27:10.180Z,100.00
2023-11-12T20:29:39.717Z,100.00
2023-11-12T20:32:15.302Z,100.00
2023-11-12T20:34:46.217Z,100.00
2023-11-12T20:37:16.944Z,100.00
2023-11-12T20:39:44.842Z,100.00
2023-11-12T20:42:14.796Z,100.00
2023-11-12T20:44:43.375Z,100.00
2023-11-12T20:47:13.681Z,100.00
2023-11-12T20:49:45.617Z,100.00
2023-11-12T20:52:13.989Z,100.00
2023-11-12T20:54:42.284Z,100.00
2023-11-12T20:57:10.517Z,100.00
2023-11-12T20:59:38.752Z,100.00
2023-11-12T21:02:14.642Z,100.00
2023-11-12T21:04:51.812Z,100.00
2023-11-12T21:07:21.141Z,100.00
2023-11-12T21:09:51.108Z,100.00
2023-11-12T21:12:22.184Z,100.00
2023-11-12T21:14:50.789Z,100.00
2023-11-12T21:17:19.223Z,100.00
2023-11-12T21:19:48.005Z,100.00
2023-11-12T21:22:17.578Z,100.00
2023-11-12T21:24:45.867Z,100.00
2023-11-12T21:27:14.103Z,100.00
2023-11-12T21:29:42.642Z,100.00
2023-11-12T21:32:11.030Z,100.00
2023-11-12T21:34:39.399Z,100.00
2023-11-12T21:37:08.172Z,100.00
2023-11-12T21:39:38.218Z,100.00
2023-11-12T21:42:07.224Z,100.00
2023-11-12T21:44:36.465Z,100.00
2023-11-12T21:47:05.302Z,100.00
2023-11-12T21:49:33.761Z,100.00
2023-11-12T21:52:03.115Z,100.00
2023-11-12T21:54:31.674Z,100.00
2023-11-12T21:57:01.708Z,100.00
2023-11-12T21:59:32.128Z,100.00
2023-11-12T22:02:02.960Z,100.00
2023-11-12T22:04:31.285Z,100.00
2023-11-12T22:06:59.928Z,100.00
2023-11-12T22:09:28.277Z,100.00
2023-11-12T22:11:56.556Z,100.00
2023-11-12T22:14:26.080Z,100.00
2023-11-12T22:16:54.462Z,100.00
2023-11-12T22:19:22.667Z,100.00
2023-11-12T22:21:50.884Z,100.00
2023-11-12T22:24:19.540Z,100.00
2023-11-12T22:26:47.720Z,100.00
2023-11-12T22:29:16.006Z,100.00
2023-11-12T22:31:46.540Z,100.00
2023-11-12T22:34:15.978Z,100.00
2023-11-12T22:36:44.512Z,100.00
2023-11-12T22:39:13.341Z,100.00
2023-11-12T22:41:41.910Z,100.00
2023-11-12T22:44:11.428Z,100.00
2023-11-12T22:46:39.651Z,100.00
2023-11-12T22:49:09.224Z,100.00
2023-11-12T22:51:38.615Z,100.00
2023-11-12T22:54:07.037Z,100.00
2023-11-12T22:56:35.232Z,100.00
2023-11-12T22:59:03.535Z,100.00
2023-11-12T23:01:31.857Z,100.00
2023-11-12T23:04:00.130Z,100.00
2023-11-12T23:06:29.694Z,100.00
2023-11-12T23:09:06.676Z,100.00
2023-11-12T23:11:35.280Z,100.00
2023-11-12T23:14:05.252Z,100.00
2023-11-12T23:16:33.728Z,100.00
2023-11-12T23:19:02.356Z,100.00
2023-11-12T23:21:31.909Z,100.00
2023-11-12T23:24:00.145Z,100.00
2023-11-12T23:26:28.623Z,100.00
2023-11-12T23:28:56.806Z,100.00
2023-11-12T23:31:25.309Z,100.00
2023-11-12T23:33:54.296Z,100.00
2023-11-12T23:36:22.707Z,100.00
2023-11-12T23:38:52.540Z,100.00
2023-11-12T23:41:20.960Z,100.00
2023-11-12T23:43:49.672Z,100.00
2023-11-12T23:46:18.510Z,100.00
2023-11-12T23:48:46.799Z,100.00
2023-11-12T23:51:15.784Z,100.00
2023-11-12T23:53:45.352Z,100.00
2023-11-12T23:56:17.826Z,100.00
2023-11-12T23:58:46.196Z,100.00
